createdAt,value
2023-05-06T00:02:43.235Z,33.53
2023-05-06T00:05:29.704Z,34.20
2023-05-06T00:08:16.234Z,33.30
2023-05-06T00:11:02.396Z,38.10
2023-05-06T00:13:50.649Z,42.83
2023-05-06T00:16:36.984Z,35.17
2023-05-06T00:19:23.476Z,29.10
2023-05-06T00:22:09.774Z,38.30
2023-05-06T00:24:56.281Z,57.90
2023-05-06T00:27:42.731Z,37.93
2023-05-06T00:30:31.322Z,33.47
2023-05-06T00:33:17.541Z,32.23
2023-05-06T00:36:04.120Z,29.47
2023-05-06T00:38:50.931Z,25.17
2023-05-06T00:41:37.260Z,27.63
2023-05-06T00:44:23.630Z,33.50
2023-05-06T00:47:11.582Z,29.03
2023-05-06T00:49:58.057Z,37.33
2023-05-06T00:52:44.526Z,39.77
2023-05-06T00:55:31.632Z,34.13
2023-05-06T00:58:18.520Z,41.93
2023-05-06T01:01:05.060Z,29.37
2023-05-06T01:03:57.287Z,33.13
2023-05-06T01:06:51.090Z,33.00
2023-05-06T01:09:40.691Z,25.20
2023-05-06T01:12:30.584Z,27.87
2023-05-06T01:15:21.647Z,30.77
2023-05-06T01:18:10.211Z,32.93
2023-05-06T01:20:59.239Z,32.13
2023-05-06T01:23:53.624Z,35.10
2023-05-06T01:26:42.522Z,27.10
2023-05-06T01:29:29.303Z,25.67
2023-05-06T01:32:27.327Z,23.37
2023-05-06T01:35:17.894Z,22.30
2023-05-06T01:38:10.414Z,23.33
2023-05-06T01:40:59.547Z,42.23
2023-05-06T01:43:48.598Z,34.47
2023-05-06T01:46:35.794Z,29.70
2023-05-06T01:49:23.357Z,44.60
2023-05-06T01:52:10.281Z,57.63
2023-05-06T01:54:58.536Z,54.07
2023-05-06T01:57:46.611Z,70.17
2023-05-06T02:00:34.068Z,42.33
2023-05-06T02:03:20.576Z,38.40
2023-05-06T02:06:07.339Z,42.50
2023-05-06T02:08:54.161Z,60.53
2023-05-06T02:11:40.744Z,57.00
2023-05-06T02:14:29.021Z,44.77
2023-05-06T02:17:15.802Z,72.53
2023-05-06T02:20:02.274Z,46.80
2023-05-06T02:22:48.298Z,41.33
2023-05-06T02:25:34.836Z,34.13
2023-05-06T02:28:21.399Z,28.50
2023-05-06T02:31:09.646Z,79.83
2023-05-06T02:33:56.018Z,32.30
2023-05-06T02:36:42.062Z,39.77
2023-05-06T02:39:28.380Z,86.80
2023-05-06T02:42:15.944Z,54.40
2023-05-06T02:45:02.597Z,66.37
2023-05-06T02:47:50.759Z,74.47
2023-05-06T02:50:37.308Z,60.73
2023-05-06T02:53:23.813Z,67.10
2023-05-06T02:56:10.271Z,34.43
2023-05-06T02:58:56.636Z,41.87
2023-05-06T03:01:42.956Z,50.27
2023-05-06T03:04:30.690Z,29.47
2023-05-06T03:07:17.321Z,24.87
2023-05-06T03:10:04.090Z,29.70
2023-05-06T03:12:50.370Z,26.30
2023-05-06T03:15:37.060Z,26.33
2023-05-06T03:18:23.611Z,25.03
2023-05-06T03:21:12.707Z,20.63
2023-05-06T03:23:59.393Z,30.40
2023-05-06T03:26:45.913Z,26.47
2023-05-06T03:29:32.193Z,27.67
2023-05-06T03:32:19.000Z,63.40
2023-05-06T03:35:06.785Z,37.67
2023-05-06T03:37:54.842Z,27.90
2023-05-06T03:40:41.126Z,36.27
2023-05-06T03:43:27.638Z,30.23
2023-05-06T03:46:14.071Z,38.23
2023-05-06T03:49:02.841Z,137.37
2023-05-06T03:51:49.285Z,179.27
2023-05-06T03:54:37.377Z,34.03
2023-05-06T03:57:23.723Z,36.73
2023-05-06T04:00:12.125Z,39.90
2023-05-06T04:02:58.825Z,62.90
2023-05-06T04:05:45.186Z,28.33
2023-05-06T04:08:31.773Z,46.27
2023-05-06T04:11:19.661Z,60.33
2023-05-06T04:14:06.166Z,32.83
2023-05-06T04:16:52.410Z,46.10
2023-05-06T04:19:39.135Z,49.97
2023-05-06T04:22:25.469Z,41.30
2023-05-06T04:25:12.779Z,33.87
2023-05-06T04:28:01.097Z,48.80
2023-05-06T04:30:47.619Z,120.23
2023-05-06T04:33:34.275Z,41.27
2023-05-06T04:36:20.919Z,54.03
2023-05-06T04:39:08.752Z,72.00
2023-05-06T04:41:55.418Z,35.83
2023-05-06T04:44:43.457Z,51.80
2023-05-06T04:47:30.294Z,33.03
2023-05-06T04:50:16.929Z,44.30
2023-05-06T04:53:03.496Z,33.03
2023-05-06T04:55:50.340Z,37.33
2023-05-06T04:58:36.724Z,37.10
2023-05-06T05:01:24.776Z,36.07
2023-05-06T05:04:11.119Z,41.70
2023-05-06T05:06:57.818Z,38.43
2023-05-06T05:09:43.980Z,40.13
2023-05-06T05:12:30.413Z,36.37
2023-05-06T05:15:16.905Z,34.90
2023-05-06T05:18:04.970Z,39.97
2023-05-06T05:20:51.684Z,49.13
2023-05-06T05:23:38.078Z,39.97
2023-05-06T05:26:24.731Z,40.33
2023-05-06T05:29:11.313Z,31.87
2023-05-06T05:31:57.930Z,33.83
2023-05-06T05:34:45.434Z,38.83
2023-05-06T05:37:32.713Z,42.80
2023-05-06T05:40:18.858Z,43.20
2023-05-06T05:43:05.287Z,54.73
2023-05-06T05:45:51.488Z,46.40
2023-05-06T05:48:39.805Z,42.83
2023-05-06T05:51:27.599Z,44.37
2023-05-06T05:54:14.904Z,41.90
2023-05-06T05:57:01.748Z,39.37
2023-05-06T05:59:48.298Z,32.80
2023-05-06T06:02:35.940Z,30.00
2023-05-06T06:05:22.424Z,25.37
2023-05-06T06:08:09.909Z,24.93
2023-05-06T06:10:56.284Z,19.10
2023-05-06T06:13:42.839Z,16.80
2023-05-06T06:16:29.206Z,18.47
2023-05-06T06:19:15.911Z,17.63
2023-05-06T06:22:02.206Z,15.60
2023-05-06T06:24:50.168Z,11.73
2023-05-06T06:27:36.900Z,11.30
2023-05-06T06:30:23.234Z,11.43
2023-05-06T06:33:09.645Z,12.47
2023-05-06T06:35:56.109Z,9.67
2023-05-06T06:38:42.733Z,12.90
2023-05-06T06:41:30.652Z,8.87
2023-05-06T06:44:17.088Z,10.17
2023-05-06T06:47:03.509Z,8.97
2023-05-06T06:49:49.794Z,9.90
2023-05-06T06:52:36.378Z,7.73
2023-05-06T06:55:22.783Z,7.57
2023-05-06T06:58:10.741Z,8.13
2023-05-06T07:00:57.406Z,8.70
2023-05-06T07:03:43.945Z,7.50
2023-05-06T07:06:30.369Z,11.00
2023-05-06T07:09:16.818Z,6.93
2023-05-06T07:12:03.793Z,8.50
2023-05-06T07:14:51.972Z,7.63
2023-05-06T07:17:38.238Z,7.13
2023-05-06T07:20:24.562Z,5.83
2023-05-06T07:23:10.898Z,9.37
2023-05-06T07:25:57.068Z,8.23
2023-05-06T07:28:43.592Z,6.47
2023-05-06T07:31:33.941Z,6.57
2023-05-06T07:34:21.642Z,6.60
2023-05-06T07:37:08.303Z,6.90
2023-05-06T07:39:54.880Z,6.80
2023-05-06T07:42:42.999Z,6.30
2023-05-06T07:45:29.687Z,5.77
2023-05-06T07:48:20.171Z,7.27
2023-05-06T07:51:07.152Z,5.70
2023-05-06T07:53:53.584Z,7.57
2023-05-06T07:56:39.725Z,9.60
2023-05-06T07:59:26.771Z,6.07
2023-05-06T08:02:13.032Z,5.33
2023-05-06T08:05:00.625Z,5.97
2023-05-06T08:07:47.208Z,5.97
2023-05-06T08:10:33.969Z,5.57
2023-05-06T08:13:20.313Z,6.37
2023-05-06T08:16:07.222Z,7.97
2023-05-06T08:18:53.854Z,5.80
2023-05-06T08:21:41.567Z,6.20
2023-05-06T08:24:27.878Z,5.83
2023-05-06T08:27:14.623Z,5.83
2023-05-06T08:30:01.125Z,5.40
2023-05-06T08:32:47.891Z,7.57
2023-05-06T08:35:34.529Z,8.03
2023-05-06T08:38:22.764Z,5.33
2023-05-06T08:41:09.823Z,6.27
2023-05-06T08:43:58.420Z,5.83
2023-05-06T08:46:44.609Z,7.43
2023-05-06T08:49:31.186Z,7.93
2023-05-06T08:52:18.064Z,6.40
2023-05-06T08:55:06.520Z,6.33
2023-05-06T08:57:54.029Z,5.33
2023-05-06T09:00:40.742Z,6.27
2023-05-06T09:03:27.336Z,5.43
2023-05-06T09:06:13.986Z,6.93
2023-05-06T09:09:00.896Z,5.63
2023-05-06T09:11:53.924Z,6.67
2023-05-06T09:14:40.590Z,6.07
2023-05-06T09:17:28.588Z,7.13
2023-05-06T09:20:14.938Z,7.37
2023-05-06T09:23:01.638Z,7.10
2023-05-06T09:25:49.828Z,5.40
2023-05-06T09:28:37.625Z,6.07
2023-05-06T09:31:25.631Z,8.07
2023-05-06T09:34:12.680Z,6.27
2023-05-06T09:36:59.125Z,4.40
2023-05-06T09:39:45.974Z,4.33
2023-05-06T09:42:32.542Z,4.43
2023-05-06T09:45:20.554Z,5.33
2023-05-06T09:48:09.429Z,6.83
2023-05-06T09:50:57.458Z,4.97
2023-05-06T09:53:45.644Z,6.10
2023-05-06T09:56:32.468Z,5.13
2023-05-06T09:59:19.251Z,5.13
2023-05-06T10:02:07.197Z,5.03
2023-05-06T10:04:55.793Z,4.10
2023-05-06T10:07:42.871Z,4.03
2023-05-06T10:10:29.645Z,4.37
2023-05-06T10:13:17.112Z,6.23
2023-05-06T10:16:03.624Z,6.00
2023-05-06T10:18:54.464Z,4.87
2023-05-06T10:21:42.448Z,4.07
2023-05-06T10:24:34.186Z,3.57
2023-05-06T10:27:23.585Z,4.40
2023-05-06T10:30:10.920Z,4.00
2023-05-06T10:32:58.806Z,6.43
2023-05-06T10:35:54.292Z,3.83
2023-05-06T10:38:42.221Z,4.87
2023-05-06T10:41:28.969Z,4.40
2023-05-06T10:44:15.569Z,3.60
2023-05-06T10:47:02.072Z,3.77
2023-05-06T10:50:16.764Z,2.90
2023-05-06T10:53:05.024Z,4.80
2023-05-06T10:56:09.084Z,3.30
2023-05-06T10:58:56.120Z,3.13
2023-05-06T11:01:43.826Z,4.60
2023-05-06T11:04:31.368Z,3.83
2023-05-06T11:07:23.210Z,3.33
2023-05-06T11:10:12.205Z,3.37
2023-05-06T11:13:00.461Z,4.33
2023-05-06T11:15:47.408Z,5.00
2023-05-06T11:18:46.038Z,3.50
2023-05-06T11:21:40.264Z,3.37
2023-05-06T11:24:28.344Z,4.90
2023-05-06T11:27:19.580Z,6.53
2023-05-06T11:30:06.599Z,3.83
2023-05-06T11:32:54.789Z,3.53
2023-05-06T11:35:41.282Z,4.00
2023-05-06T11:38:28.216Z,5.07
2023-05-06T11:41:15.354Z,3.33
2023-05-06T11:44:03.258Z,3.70
2023-05-06T11:46:49.735Z,6.13
2023-05-06T11:49:40.516Z,5.47
2023-05-06T11:52:26.686Z,3.10
2023-05-06T11:55:13.724Z,6.00
2023-05-06T11:58:00.574Z,3.60
2023-05-06T12:00:52.028Z,5.63
2023-05-06T12:03:39.168Z,4.33
2023-05-06T12:06:33.678Z,3.43
2023-05-06T12:09:22.219Z,4.47
2023-05-06T12:12:09.438Z,3.13
2023-05-06T12:14:56.227Z,3.47
2023-05-06T12:17:46.223Z,4.30
2023-05-06T12:20:32.907Z,4.20
2023-05-06T12:23:20.131Z,3.70
2023-05-06T12:26:09.203Z,3.00
2023-05-06T12:29:06.001Z,4.17
2023-05-06T12:32:07.507Z,2.83
2023-05-06T12:34:56.088Z,5.80
2023-05-06T12:37:42.659Z,5.27
2023-05-06T12:40:28.894Z,3.93
2023-05-06T12:43:15.309Z,8.60
2023-05-06T12:46:05.655Z,4.70
2023-05-06T12:48:59.221Z,5.87
2023-05-06T12:51:47.782Z,4.23
2023-05-06T12:54:34.310Z,2.90
2023-05-06T12:57:20.796Z,3.33
2023-05-06T13:00:10.205Z,2.60
2023-05-06T13:02:57.331Z,3.57
2023-05-06T13:05:43.880Z,2.80
2023-05-06T13:08:31.742Z,3.20
2023-05-06T13:11:18.149Z,5.37
2023-05-06T13:14:04.592Z,4.67
2023-05-06T13:16:51.586Z,5.17
2023-05-06T13:19:38.168Z,4.10
2023-05-06T13:22:25.090Z,2.43
2023-05-06T13:25:13.569Z,3.03
2023-05-06T13:27:59.994Z,4.53
2023-05-06T13:30:46.645Z,4.17
2023-05-06T13:33:33.521Z,2.90
2023-05-06T13:36:19.794Z,4.10
2023-05-06T13:39:06.274Z,4.03
2023-05-06T13:41:54.351Z,4.30
2023-05-06T13:44:40.715Z,4.13
2023-05-06T13:47:27.319Z,2.97
2023-05-06T13:50:14.273Z,2.87
2023-05-06T13:53:00.812Z,4.43
2023-05-06T13:55:47.254Z,3.97
2023-05-06T13:58:34.934Z,4.03
2023-05-06T14:01:21.610Z,5.33
2023-05-06T14:04:08.168Z,4.43
2023-05-06T14:06:55.224Z,5.13
2023-05-06T14:09:41.803Z,3.23
2023-05-06T14:12:28.147Z,3.80
2023-05-06T14:15:16.287Z,2.47
2023-05-06T14:18:02.955Z,2.53
2023-05-06T14:20:49.407Z,2.83
2023-05-06T14:23:35.713Z,3.43
2023-05-06T14:26:22.586Z,3.20
2023-05-06T14:29:09.034Z,3.70
2023-05-06T14:31:56.897Z,3.50
2023-05-06T14:34:43.303Z,3.20
2023-05-06T14:37:29.670Z,2.67
2023-05-06T14:40:16.746Z,4.00
2023-05-06T14:43:03.535Z,3.47
2023-05-06T14:45:49.605Z,3.97
2023-05-06T14:48:37.354Z,2.90
2023-05-06T14:51:23.909Z,4.07
2023-05-06T14:54:10.647Z,3.13
2023-05-06T14:57:01.316Z,4.43
2023-05-06T14:59:47.922Z,2.83
2023-05-06T15:02:34.484Z,5.73
2023-05-06T15:05:22.282Z,4.77
2023-05-06T15:08:10.031Z,4.17
2023-05-06T15:10:56.322Z,3.50
2023-05-06T15:13:42.501Z,4.87
2023-05-06T15:16:28.841Z,4.53
2023-05-06T15:19:18.263Z,2.60
2023-05-06T15:22:06.859Z,4.97
2023-05-06T15:24:53.361Z,4.53
2023-05-06T15:27:39.887Z,5.17
2023-05-06T15:30:26.428Z,4.97
2023-05-06T15:33:13.151Z,3.73
2023-05-06T15:35:59.578Z,3.30
2023-05-06T15:39:06.847Z,5.67
2023-05-06T15:41:54.509Z,2.97
2023-05-06T15:44:41.391Z,3.27
2023-05-06T15:47:27.921Z,5.00
2023-05-06T15:50:25.354Z,5.70
2023-05-06T15:53:20.004Z,5.57
2023-05-06T15:56:13.469Z,16.53
2023-05-06T15:59:06.026Z,11.30
2023-05-06T16:04:42.089Z,4.90
2023-05-06T16:07:29.913Z,3.80
2023-05-06T16:10:16.417Z,10.80
2023-05-06T16:13:03.790Z,4.97
2023-05-06T16:15:51.885Z,4.47
2023-05-06T16:18:38.281Z,5.57
2023-05-06T16:24:27.222Z,8.60
2023-05-06T16:27:16.640Z,5.50
2023-05-06T16:33:00.621Z,8.27
2023-05-06T16:39:13.559Z,16.13
2023-05-06T16:42:03.191Z,8.00
2023-05-06T16:44:49.213Z,16.50
2023-05-06T16:47:35.844Z,19.53
2023-05-06T16:50:24.349Z,19.10
2023-05-06T16:53:10.841Z,16.73
2023-05-06T16:56:18.154Z,10.80
2023-05-06T16:59:04.442Z,15.33
2023-05-06T17:01:50.936Z,26.93
2023-05-06T17:04:37.679Z,34.83
2023-05-06T17:07:25.284Z,81.67
2023-05-06T17:10:12.506Z,10.67
2023-05-06T17:12:59.797Z,8.97
2023-05-06T17:15:46.389Z,7.20
2023-05-06T17:18:32.737Z,7.63
2023-05-06T17:21:23.699Z,8.37
2023-05-06T17:24:12.120Z,8.70
2023-05-06T17:26:58.644Z,7.63
2023-05-06T17:29:48.477Z,8.30
2023-05-06T17:32:48.842Z,11.03
2023-05-06T17:35:35.613Z,8.13
2023-05-06T17:38:21.970Z,9.17
2023-05-06T17:41:10.174Z,12.67
2023-05-06T17:43:56.406Z,14.33
2023-05-06T17:46:43.184Z,10.87
2023-05-06T17:49:29.713Z,8.03
2023-05-06T17:52:17.889Z,9.20
2023-05-06T17:55:15.647Z,10.17
2023-05-06T17:58:04.628Z,8.73
2023-05-06T18:00:51.155Z,8.80
2023-05-06T18:03:40.377Z,8.47
2023-05-06T18:06:45.535Z,8.40
2023-05-06T18:09:33.821Z,10.33
2023-05-06T18:12:20.696Z,11.40
2023-05-06T18:15:09.680Z,7.33
2023-05-06T18:19:07.458Z,7.23
2023-05-06T18:21:51.884Z,8.70
2023-05-06T18:32:04.702Z,8.47
2023-05-06T18:38:24.878Z,7.63
2023-05-06T18:41:11.727Z,9.10
2023-05-06T18:44:34.323Z,11.50
2023-05-06T18:47:32.665Z,8.00
2023-05-06T18:50:20.533Z,9.40
2023-05-06T18:53:08.825Z,10.27
2023-05-06T18:56:52.737Z,12.17
2023-05-06T18:59:42.738Z,8.43
2023-05-06T19:02:29.500Z,10.13
2023-05-06T19:06:01.313Z,8.30
2023-05-06T19:08:48.519Z,11.97
2023-05-06T19:11:35.189Z,35.13
2023-05-06T19:14:23.633Z,45.67
2023-05-06T19:17:12.394Z,12.13
2023-05-06T19:19:59.193Z,8.40
2023-05-06T19:22:46.902Z,7.13
2023-05-06T19:25:36.434Z,8.00
2023-05-06T19:28:22.836Z,9.57
2023-05-06T19:31:09.700Z,9.90
2023-05-06T19:33:55.945Z,10.50
2023-05-06T19:36:42.482Z,8.20
2023-05-06T19:39:29.919Z,11.13
2023-05-06T19:42:17.878Z,17.27
2023-05-06T19:45:16.444Z,17.77
2023-05-06T19:48:04.376Z,13.60
2023-05-06T19:50:51.007Z,15.20
2023-05-06T19:53:37.740Z,15.10
2023-05-06T19:56:25.910Z,15.97
2023-05-06T19:59:12.403Z,12.83
2023-05-06T20:02:01.718Z,16.73
2023-05-06T20:04:47.988Z,11.23
2023-05-06T20:07:34.913Z,11.73
2023-05-06T20:10:21.884Z,10.87
2023-05-06T20:13:12.084Z,10.57
2023-05-06T20:15:58.395Z,13.80
2023-05-06T20:18:45.318Z,11.40
2023-05-06T20:21:31.964Z,16.00
2023-05-06T20:24:18.022Z,10.53
2023-05-06T20:27:04.868Z,7.97
2023-05-06T20:29:52.756Z,7.07
2023-05-06T20:32:39.567Z,6.70
2023-05-06T20:35:26.443Z,7.73
2023-05-06T20:38:16.970Z,9.43
2023-05-06T20:41:03.886Z,6.93
2023-05-06T20:43:52.817Z,5.73
2023-05-06T20:46:40.814Z,7.73
2023-05-06T20:49:27.506Z,12.13
2023-05-06T20:52:15.459Z,24.97
2023-05-06T20:55:01.718Z,14.07
2023-05-06T20:57:48.223Z,13.77
2023-05-06T21:00:34.464Z,15.03
2023-05-06T21:03:22.621Z,15.40
2023-05-06T21:06:09.444Z,13.57
2023-05-06T21:08:56.538Z,9.13
2023-05-06T21:11:43.088Z,10.00
2023-05-06T21:14:29.450Z,7.80
2023-05-06T21:17:16.090Z,7.53
2023-05-06T21:20:05.589Z,9.70
2023-05-06T21:22:52.745Z,7.23
2023-05-06T21:25:39.470Z,9.27
2023-05-06T21:28:25.719Z,9.57
2023-05-06T21:31:12.349Z,7.57
2023-05-06T21:33:59.629Z,6.23
2023-05-06T21:36:47.530Z,7.47
2023-05-06T21:39:33.783Z,11.70
2023-05-06T21:42:20.228Z,14.60
2023-05-06T21:48:16.577Z,13.13
2023-05-06T21:51:04.126Z,11.53
2023-05-06T21:53:52.168Z,7.67
2023-05-06T21:56:52.012Z,9.07
2023-05-06T21:59:38.546Z,7.03
2023-05-06T22:02:25.212Z,7.90
2023-05-06T22:05:12.097Z,6.50
2023-05-06T22:07:58.679Z,7.23
2023-05-06T22:10:46.738Z,8.30
2023-05-06T22:13:33.232Z,6.90
2023-05-06T22:16:50.635Z,6.27
2023-05-06T22:19:38.835Z,22.40
2023-05-06T22:22:25.540Z,29.87
2023-05-06T22:25:12.337Z,20.73
2023-05-06T22:28:00.468Z,17.87
2023-05-06T22:30:47.269Z,16.03
2023-05-06T22:33:33.782Z,17.40
2023-05-06T22:36:20.237Z,14.43
2023-05-06T22:39:06.900Z,8.97
2023-05-06T22:41:53.483Z,5.93
2023-05-06T22:44:41.261Z,6.40
2023-05-06T22:47:27.690Z,8.17
2023-05-06T22:50:14.153Z,5.53
2023-05-06T22:53:10.365Z,6.97
2023-05-06T22:56:00.227Z,14.43
2023-05-06T22:58:46.858Z,17.53
2023-05-06T23:01:35.005Z,15.30
2023-05-06T23:04:21.424Z,9.90
2023-05-06T23:07:07.900Z,12.07
2023-05-06T23:09:54.241Z,17.03
2023-05-06T23:12:41.257Z,20.77
2023-05-06T23:15:27.719Z,11.07
2023-05-06T23:18:15.255Z,9.80
2023-05-06T23:21:01.578Z,9.83
2023-05-06T23:23:47.987Z,13.63
2023-05-06T23:26:34.172Z,11.37
2023-05-06T23:29:20.409Z,10.20
2023-05-06T23:32:07.233Z,13.60
2023-05-06T23:34:55.061Z,8.27
2023-05-06T23:37:41.547Z,7.20
2023-05-06T23:40:28.018Z,7.73
2023-05-06T23:43:14.543Z,8.67
2023-05-06T23:46:00.701Z,13.63
2023-05-06T23:48:47.019Z,10.17
2023-05-06T23:51:35.093Z,11.23
2023-05-06T23:54:21.490Z,11.07
2023-05-06T23:57:07.646Z,10.30
2023-05-06T23:59:54.113Z,10.03
